sensor_id;sensor_type;location;lat;lon;timestamp;noise_LAeq;noise_LA_min;noise_LA_max;noise_LA01;noise_LA95
64996;Laerm;51545;51.568;6.998;2023-04-06T00:00:23;41.21;33.55;59.18;;
64996;Laerm;51545;51.568;6.998;2023-04-06T00:02:50;42.47;34.98;51.84;;
64996;Laerm;51545;51.568;6.998;2023-04-06T00:05:18;46.97;34.57;62.46;;
64996;Laerm;51545;51.568;6.998;2023-04-06T00:07:44;40.04;35.56;45.34;;
64996;Laerm;51545;51.568;6.998;2023-04-06T00:10:10;40.10;35.08;46.70;;
64996;Laerm;51545;51.568;6.998;2023-04-06T00:12:36;39.02;34.10;51.98;;
64996;Laerm;51545;51.568;6.998;2023-04-06T00:15:01;39.28;34.24;45.25;;
64996;Laerm;51545;51.568;6.998;2023-04-06T00:17:27;40.34;35.43;47.57;;
64996;Laerm;51545;51.568;6.998;2023-04-06T00:19:53;40.49;34.98;48.90;;
64996;Laerm;51545;51.568;6.998;2023-04-06T00:22:18;39.78;34.77;45.36;;
64996;Laerm;51545;51.568;6.998;2023-04-06T00:24:44;40.38;35.65;49.38;;
64996;Laerm;51545;51.568;6.998;2023-04-06T00:27:10;40.63;35.97;48.36;;
64996;Laerm;51545;51.568;6.998;2023-04-06T00:29:35;41.51;36.09;46.57;;
64996;Laerm;51545;51.568;6.998;2023-04-06T00:32:02;42.14;36.95;47.26;;
64996;Laerm;51545;51.568;6.998;2023-04-06T00:34:27;40.97;35.60;47.10;;
64996;Laerm;51545;51.568;6.998;2023-04-06T00:36:53;40.46;35.92;60.59;;
64996;Laerm;51545;51.568;6.998;2023-04-06T00:39:18;40.88;36.84;47.89;;
64996;Laerm;51545;51.568;6.998;2023-04-06T00:41:50;42.09;36.13;46.77;;
64996;Laerm;51545;51.568;6.998;2023-04-06T00:44:16;42.55;37.56;49.29;;
64996;Laerm;51545;51.568;6.998;2023-04-06T00:46:41;41.22;36.28;48.08;;
64996;Laerm;51545;51.568;6.998;2023-04-06T00:49:07;44.41;37.62;50.98;;
64996;Laerm;51545;51.568;6.998;2023-04-06T00:51:32;42.38;37.16;47.95;;
64996;Laerm;51545;51.568;6.998;2023-04-06T00:53:58;41.04;35.12;52.78;;
64996;Laerm;51545;51.568;6.998;2023-04-06T00:56:23;42.31;36.65;52.65;;
64996;Laerm;51545;51.568;6.998;2023-04-06T00:58:49;43.93;36.45;51.91;;
64996;Laerm;51545;51.568;6.998;2023-04-06T01:01:15;43.99;36.76;53.35;;
64996;Laerm;51545;51.568;6.998;2023-04-06T01:03:41;41.16;36.89;46.81;;
64996;Laerm;51545;51.568;6.998;2023-04-06T01:06:07;43.95;38.88;52.80;;
64996;Laerm;51545;51.568;6.998;2023-04-06T01:08:33;43.86;38.52;52.25;;
64996;Laerm;51545;51.568;6.998;2023-04-06T01:11:01;42.95;38.04;48.80;;
64996;Laerm;51545;51.568;6.998;2023-04-06T01:13:27;41.97;37.22;49.60;;
64996;Laerm;51545;51.568;6.998;2023-04-06T01:15:53;42.97;38.07;52.29;;
64996;Laerm;51545;51.568;6.998;2023-04-06T01:18:18;44.24;39.03;53.73;;
64996;Laerm;51545;51.568;6.998;2023-04-06T01:20:44;46.27;39.33;54.45;;
64996;Laerm;51545;51.568;6.998;2023-04-06T01:23:09;44.31;38.90;50.72;;
64996;Laerm;51545;51.568;6.998;2023-04-06T01:25:35;44.78;38.55;51.24;;
64996;Laerm;51545;51.568;6.998;2023-04-06T01:28:00;44.60;40.08;51.13;;
64996;Laerm;51545;51.568;6.998;2023-04-06T01:30:26;44.96;38.73;50.85;;
64996;Laerm;51545;51.568;6.998;2023-04-06T01:32:52;44.90;38.63;52.28;;
64996;Laerm;51545;51.568;6.998;2023-04-06T01:35:19;45.92;41.20;53.05;;
64996;Laerm;51545;51.568;6.998;2023-04-06T01:37:45;47.73;39.58;55.89;;
64996;Laerm;51545;51.568;6.998;2023-04-06T01:40:10;45.32;40.09;52.16;;
64996;Laerm;51545;51.568;6.998;2023-04-06T01:42:37;44.91;40.18;56.15;;
64996;Laerm;51545;51.568;6.998;2023-04-06T01:45:02;46.27;40.05;54.33;;
64996;Laerm;51545;51.568;6.998;2023-04-06T01:47:28;45.31;40.55;53.36;;
64996;Laerm;51545;51.568;6.998;2023-04-06T01:49:54;44.73;40.33;49.86;;
64996;Laerm;51545;51.568;6.998;2023-04-06T01:52:19;44.86;40.25;54.29;;
64996;Laerm;51545;51.568;6.998;2023-04-06T01:54:46;45.79;40.03;53.37;;
64996;Laerm;51545;51.568;6.998;2023-04-06T01:57:11;45.01;39.51;51.78;;
64996;Laerm;51545;51.568;6.998;2023-04-06T01:59:37;46.20;40.53;54.24;;
64996;Laerm;51545;51.568;6.998;2023-04-06T02:02:02;45.80;41.26;56.70;;
64996;Laerm;51545;51.568;6.998;2023-04-06T02:04:27;45.04;40.63;55.28;;
64996;Laerm;51545;51.568;6.998;2023-04-06T02:06:53;45.57;40.45;54.16;;
64996;Laerm;51545;51.568;6.998;2023-04-06T02:09:18;47.12;41.33;54.39;;
64996;Laerm;51545;51.568;6.998;2023-04-06T02:11:44;46.98;42.95;52.63;;
64996;Laerm;51545;51.568;6.998;2023-04-06T02:14:10;45.38;40.52;51.28;;
64996;Laerm;51545;51.568;6.998;2023-04-06T02:16:35;46.32;40.64;56.24;;
64996;Laerm;51545;51.568;6.998;2023-04-06T02:19:00;46.50;42.16;52.63;;
64996;Laerm;51545;51.568;6.998;2023-04-06T02:21:26;45.46;41.69;49.83;;
64996;Laerm;51545;51.568;6.998;2023-04-06T02:23:51;45.79;41.23;52.83;;
64996;Laerm;51545;51.568;6.998;2023-04-06T02:26:17;46.61;41.87;51.80;;
64996;Laerm;51545;51.568;6.998;2023-04-06T02:28:42;47.52;42.16;59.19;;
64996;Laerm;51545;51.568;6.998;2023-04-06T02:31:08;46.44;41.85;53.52;;
64996;Laerm;51545;51.568;6.998;2023-04-06T02:33:34;47.10;42.67;52.73;;
64996;Laerm;51545;51.568;6.998;2023-04-06T02:35:59;46.96;42.59;51.97;;
64996;Laerm;51545;51.568;6.998;2023-04-06T02:38:25;46.53;42.02;54.38;;
64996;Laerm;51545;51.568;6.998;2023-04-06T02:40:50;47.88;43.60;52.38;;
64996;Laerm;51545;51.568;6.998;2023-04-06T02:43:16;47.02;41.84;53.10;;
64996;Laerm;51545;51.568;6.998;2023-04-06T02:45:42;47.72;42.70;52.69;;
64996;Laerm;51545;51.568;6.998;2023-04-06T02:48:07;48.26;43.88;53.78;;
64996;Laerm;51545;51.568;6.998;2023-04-06T02:50:33;47.87;43.83;52.39;;
64996;Laerm;51545;51.568;6.998;2023-04-06T02:52:58;48.65;44.29;55.27;;
64996;Laerm;51545;51.568;6.998;2023-04-06T02:55:24;48.38;43.49;53.74;;
64996;Laerm;51545;51.568;6.998;2023-04-06T02:57:49;49.47;44.61;55.99;;
64996;Laerm;51545;51.568;6.998;2023-04-06T03:00:15;50.28;46.09;63.06;;
64996;Laerm;51545;51.568;6.998;2023-04-06T03:02:41;48.61;43.68;57.92;;
64996;Laerm;51545;51.568;6.998;2023-04-06T03:05:06;49.12;44.76;56.36;;
64996;Laerm;51545;51.568;6.998;2023-04-06T03:07:32;48.33;43.80;53.39;;
64996;Laerm;51545;51.568;6.998;2023-04-06T03:09:57;50.03;45.26;55.72;;
64996;Laerm;51545;51.568;6.998;2023-04-06T03:12:24;49.50;44.01;54.91;;
64996;Laerm;51545;51.568;6.998;2023-04-06T03:14:49;50.47;44.59;57.47;;
64996;Laerm;51545;51.568;6.998;2023-04-06T03:17:15;49.55;44.77;62.80;;
64996;Laerm;51545;51.568;6.998;2023-04-06T03:19:40;49.74;45.91;57.05;;
64996;Laerm;51545;51.568;6.998;2023-04-06T03:22:06;51.05;45.51;59.81;;
64996;Laerm;51545;51.568;6.998;2023-04-06T03:24:31;50.97;46.99;57.54;;
64996;Laerm;51545;51.568;6.998;2023-04-06T03:26:57;51.58;46.29;68.17;;
64996;Laerm;51545;51.568;6.998;2023-04-06T03:29:22;50.92;46.76;59.82;;
64996;Laerm;51545;51.568;6.998;2023-04-06T03:31:48;50.19;45.99;60.24;;
64996;Laerm;51545;51.568;6.998;2023-04-06T03:34:13;50.02;45.53;57.81;;
64996;Laerm;51545;51.568;6.998;2023-04-06T03:36:39;50.59;46.49;60.67;;
64996;Laerm;51545;51.568;6.998;2023-04-06T03:39:04;50.28;45.90;56.14;;
64996;Laerm;51545;51.568;6.998;2023-04-06T03:41:30;49.80;44.92;54.65;;
64996;Laerm;51545;51.568;6.998;2023-04-06T03:43:55;51.70;47.76;58.88;;
64996;Laerm;51545;51.568;6.998;2023-04-06T03:46:21;55.24;47.87;73.51;;
64996;Laerm;51545;51.568;6.998;2023-04-06T03:48:48;51.44;44.90;62.49;;
64996;Laerm;51545;51.568;6.998;2023-04-06T03:51:13;57.25;46.53;74.64;;
64996;Laerm;51545;51.568;6.998;2023-04-06T03:53:39;57.17;46.99;76.00;;
64996;Laerm;51545;51.568;6.998;2023-04-06T03:56:05;56.12;47.40;68.97;;
64996;Laerm;51545;51.568;6.998;2023-04-06T03:58:31;56.16;47.43;68.42;;
64996;Laerm;51545;51.568;6.998;2023-04-06T04:00:56;56.77;47.16;70.84;;
64996;Laerm;51545;51.568;6.998;2023-04-06T04:03:22;53.44;47.11;66.67;;
64996;Laerm;51545;51.568;6.998;2023-04-06T04:05:49;53.24;46.09;65.27;;
64996;Laerm;51545;51.568;6.998;2023-04-06T04:08:15;54.06;46.89;66.74;;
64996;Laerm;51545;51.568;6.998;2023-04-06T04:10:41;54.37;46.70;66.61;;
64996;Laerm;51545;51.568;6.998;2023-04-06T04:13:06;54.56;45.49;68.40;;
64996;Laerm;51545;51.568;6.998;2023-04-06T04:15:32;53.32;46.17;65.14;;
64996;Laerm;51545;51.568;6.998;2023-04-06T04:17:57;55.39;48.01;69.13;;
64996;Laerm;51545;51.568;6.998;2023-04-06T04:20:23;53.72;46.23;63.88;;
64996;Laerm;51545;51.568;6.998;2023-04-06T04:22:48;53.40;46.58;70.66;;
64996;Laerm;51545;51.568;6.998;2023-04-06T04:25:14;52.46;47.01;62.77;;
64996;Laerm;51545;51.568;6.998;2023-04-06T04:27:39;52.58;46.45;71.24;;
64996;Laerm;51545;51.568;6.998;2023-04-06T04:30:06;50.56;45.72;59.54;;
64996;Laerm;51545;51.568;6.998;2023-04-06T04:32:31;50.00;46.22;57.34;;
64996;Laerm;51545;51.568;6.998;2023-04-06T04:34:57;50.60;45.75;56.25;;
64996;Laerm;51545;51.568;6.998;2023-04-06T04:37:22;49.96;45.58;66.05;;
64996;Laerm;51545;51.568;6.998;2023-04-06T04:39:48;50.13;45.93;59.22;;
64996;Laerm;51545;51.568;6.998;2023-04-06T04:42:13;52.06;46.58;69.87;;
64996;Laerm;51545;51.568;6.998;2023-04-06T04:44:39;52.27;46.86;71.46;;
64996;Laerm;51545;51.568;6.998;2023-04-06T04:47:05;51.34;46.34;59.62;;
64996;Laerm;51545;51.568;6.998;2023-04-06T04:49:30;52.50;47.16;60.07;;
64996;Laerm;51545;51.568;6.998;2023-04-06T04:51:56;51.92;46.94;63.91;;
64996;Laerm;51545;51.568;6.998;2023-04-06T04:54:21;55.66;46.54;70.03;;
64996;Laerm;51545;51.568;6.998;2023-04-06T04:56:47;53.18;46.68;73.57;;
64996;Laerm;51545;51.568;6.998;2023-04-06T04:59:12;51.09;46.39;63.66;;
64996;Laerm;51545;51.568;6.998;2023-04-06T05:01:38;51.02;44.92;60.81;;
64996;Laerm;51545;51.568;6.998;2023-04-06T05:04:03;51.38;46.37;66.60;;
64996;Laerm;51545;51.568;6.998;2023-04-06T05:06:29;51.82;46.85;63.79;;
64996;Laerm;51545;51.568;6.998;2023-04-06T05:08:55;51.01;46.67;62.55;;
64996;Laerm;51545;51.568;6.998;2023-04-06T05:11:20;50.45;46.70;57.64;;
64996;Laerm;51545;51.568;6.998;2023-04-06T05:13:46;50.94;46.21;58.59;;
64996;Laerm;51545;51.568;6.998;2023-04-06T05:16:12;51.95;46.67;68.99;;
64996;Laerm;51545;51.568;6.998;2023-04-06T05:18:37;52.16;46.41;60.93;;
64996;Laerm;51545;51.568;6.998;2023-04-06T05:21:03;51.59;47.20;61.12;;
64996;Laerm;51545;51.568;6.998;2023-04-06T05:23:28;52.33;47.98;59.30;;
64996;Laerm;51545;51.568;6.998;2023-04-06T05:25:54;51.53;47.61;58.60;;
64996;Laerm;51545;51.568;6.998;2023-04-06T05:28:19;52.59;47.03;66.81;;
64996;Laerm;51545;51.568;6.998;2023-04-06T05:30:45;51.50;46.96;64.73;;
64996;Laerm;51545;51.568;6.998;2023-04-06T05:33:11;52.34;45.66;64.31;;
64996;Laerm;51545;51.568;6.998;2023-04-06T05:35:36;51.42;46.85;61.64;;
64996;Laerm;51545;51.568;6.998;2023-04-06T05:38:02;51.10;47.09;59.44;;
64996;Laerm;51545;51.568;6.998;2023-04-06T05:40:28;52.12;46.79;66.90;;
64996;Laerm;51545;51.568;6.998;2023-04-06T05:42:53;50.27;46.90;61.46;;
64996;Laerm;51545;51.568;6.998;2023-04-06T05:45:19;52.07;47.01;61.18;;
64996;Laerm;51545;51.568;6.998;2023-04-06T05:47:46;51.54;46.51;63.95;;
64996;Laerm;51545;51.568;6.998;2023-04-06T05:50:14;50.38;46.67;54.74;;
64996;Laerm;51545;51.568;6.998;2023-04-06T05:52:39;51.06;46.49;63.43;;
64996;Laerm;51545;51.568;6.998;2023-04-06T05:55:08;50.98;46.13;59.61;;
64996;Laerm;51545;51.568;6.998;2023-04-06T05:57:34;50.07;45.17;58.94;;
64996;Laerm;51545;51.568;6.998;2023-04-06T06:00:00;50.62;45.64;59.25;;
64996;Laerm;51545;51.568;6.998;2023-04-06T06:02:25;49.69;44.69;59.55;;
64996;Laerm;51545;51.568;6.998;2023-04-06T06:04:51;51.02;45.67;61.73;;
64996;Laerm;51545;51.568;6.998;2023-04-06T06:07:17;49.99;45.16;62.01;;
64996;Laerm;51545;51.568;6.998;2023-04-06T06:09:43;50.98;45.38;64.07;;
64996;Laerm;51545;51.568;6.998;2023-04-06T06:12:08;49.61;45.60;64.26;;
64996;Laerm;51545;51.568;6.998;2023-04-06T06:14:34;49.77;45.17;62.19;;
64996;Laerm;51545;51.568;6.998;2023-04-06T06:16:59;48.24;44.52;53.47;;
64996;Laerm;51545;51.568;6.998;2023-04-06T06:19:25;49.83;45.10;61.20;;
64996;Laerm;51545;51.568;6.998;2023-04-06T06:21:50;56.42;45.48;82.55;;
64996;Laerm;51545;51.568;6.998;2023-04-06T06:24:16;49.29;44.70;56.83;;
64996;Laerm;51545;51.568;6.998;2023-04-06T06:26:41;48.98;44.48;54.04;;
64996;Laerm;51545;51.568;6.998;2023-04-06T06:29:08;50.50;45.38;65.90;;
64996;Laerm;51545;51.568;6.998;2023-04-06T06:31:34;49.83;44.75;67.63;;
64996;Laerm;51545;51.568;6.998;2023-04-06T06:34:00;50.66;45.22;61.02;;
64996;Laerm;51545;51.568;6.998;2023-04-06T06:36:27;49.68;44.39;57.26;;
64996;Laerm;51545;51.568;6.998;2023-04-06T06:38:52;49.78;44.66;58.17;;
64996;Laerm;51545;51.568;6.998;2023-04-06T06:41:18;48.99;43.42;61.55;;
64996;Laerm;51545;51.568;6.998;2023-04-06T06:43:43;51.07;44.15;64.68;;
64996;Laerm;51545;51.568;6.998;2023-04-06T06:46:09;51.97;43.41;71.79;;
64996;Laerm;51545;51.568;6.998;2023-04-06T06:48:34;49.58;43.25;61.83;;
64996;Laerm;51545;51.568;6.998;2023-04-06T06:51:00;46.94;42.93;53.34;;
64996;Laerm;51545;51.568;6.998;2023-04-06T06:53:26;47.68;43.59;59.43;;
64996;Laerm;51545;51.568;6.998;2023-04-06T06:55:52;47.60;43.45;56.07;;
64996;Laerm;51545;51.568;6.998;2023-04-06T06:58:18;47.97;42.79;59.67;;
64996;Laerm;51545;51.568;6.998;2023-04-06T07:00:46;48.52;43.21;65.13;;
64996;Laerm;51545;51.568;6.998;2023-04-06T07:03:12;48.54;41.39;68.62;;
64996;Laerm;51545;51.568;6.998;2023-04-06T07:05:37;49.27;41.48;71.79;;
64996;Laerm;51545;51.568;6.998;2023-04-06T07:08:03;48.93;41.28;63.14;;
64996;Laerm;51545;51.568;6.998;2023-04-06T07:10:29;45.55;40.72;63.42;;
64996;Laerm;51545;51.568;6.998;2023-04-06T07:12:55;45.47;40.69;57.33;;
64996;Laerm;51545;51.568;6.998;2023-04-06T07:15:21;46.90;41.03;61.62;;
64996;Laerm;51545;51.568;6.998;2023-04-06T07:17:46;47.22;40.27;61.30;;
64996;Laerm;51545;51.568;6.998;2023-04-06T07:20:13;45.46;40.96;59.11;;
64996;Laerm;51545;51.568;6.998;2023-04-06T07:22:39;45.77;39.69;54.08;;
64996;Laerm;51545;51.568;6.998;2023-04-06T07:25:05;46.69;39.55;61.05;;
64996;Laerm;51545;51.568;6.998;2023-04-06T07:27:31;45.64;40.02;58.64;;
64996;Laerm;51545;51.568;6.998;2023-04-06T07:29:56;44.74;39.71;55.00;;
64996;Laerm;51545;51.568;6.998;2023-04-06T07:32:22;44.52;39.10;55.73;;
64996;Laerm;51545;51.568;6.998;2023-04-06T07:34:48;44.33;39.05;66.20;;
64996;Laerm;51545;51.568;6.998;2023-04-06T07:37:13;46.68;38.77;59.22;;
64996;Laerm;51545;51.568;6.998;2023-04-06T07:39:39;44.29;38.52;56.61;;
64996;Laerm;51545;51.568;6.998;2023-04-06T07:42:05;46.28;37.69;59.78;;
64996;Laerm;51545;51.568;6.998;2023-04-06T07:44:31;47.48;38.30;61.63;;
64996;Laerm;51545;51.568;6.998;2023-04-06T07:46:57;51.00;37.53;67.24;;
64996;Laerm;51545;51.568;6.998;2023-04-06T07:49:23;50.95;37.96;72.45;;
64996;Laerm;51545;51.568;6.998;2023-04-06T07:51:49;44.93;37.45;59.44;;
64996;Laerm;51545;51.568;6.998;2023-04-06T07:54:14;43.26;36.23;57.32;;
64996;Laerm;51545;51.568;6.998;2023-04-06T07:56:40;45.15;37.51;59.65;;
64996;Laerm;51545;51.568;6.998;2023-04-06T07:59:06;43.47;36.01;58.36;;
64996;Laerm;51545;51.568;6.998;2023-04-06T08:01:31;42.99;35.89;56.69;;
64996;Laerm;51545;51.568;6.998;2023-04-06T08:03:57;41.10;34.75;57.52;;
64996;Laerm;51545;51.568;6.998;2023-04-06T08:06:23;42.39;35.33;60.17;;
64996;Laerm;51545;51.568;6.998;2023-04-06T08:08:48;42.05;36.26;61.96;;
64996;Laerm;51545;51.568;6.998;2023-04-06T08:11:14;44.95;35.24;61.60;;
64996;Laerm;51545;51.568;6.998;2023-04-06T08:13:39;40.89;35.55;56.50;;
64996;Laerm;51545;51.568;6.998;2023-04-06T08:16:05;43.86;36.73;56.50;;
64996;Laerm;51545;51.568;6.998;2023-04-06T08:18:31;46.30;35.26;64.42;;
64996;Laerm;51545;51.568;6.998;2023-04-06T08:20:57;52.51;37.14;70.14;;
64996;Laerm;51545;51.568;6.998;2023-04-06T08:23:22;49.97;37.31;69.59;;
64996;Laerm;51545;51.568;6.998;2023-04-06T08:25:48;43.61;36.27;57.79;;
64996;Laerm;51545;51.568;6.998;2023-04-06T08:28:13;44.59;36.75;64.34;;
64996;Laerm;51545;51.568;6.998;2023-04-06T08:30:41;44.37;36.97;60.48;;
64996;Laerm;51545;51.568;6.998;2023-04-06T08:33:07;45.69;36.97;59.53;;
64996;Laerm;51545;51.568;6.998;2023-04-06T08:35:33;44.92;36.54;64.58;;
64996;Laerm;51545;51.568;6.998;2023-04-06T08:37:59;45.26;36.95;60.05;;
64996;Laerm;51545;51.568;6.998;2023-04-06T08:40:24;48.05;36.77;63.19;;
64996;Laerm;51545;51.568;6.998;2023-04-06T08:42:54;47.71;36.11;70.45;;
64996;Laerm;51545;51.568;6.998;2023-04-06T08:45:21;44.70;37.59;59.56;;
64996;Laerm;51545;51.568;6.998;2023-04-06T08:47:50;46.30;35.97;61.56;;
64996;Laerm;51545;51.568;6.998;2023-04-06T08:50:17;41.93;36.46;57.05;;
64996;Laerm;51545;51.568;6.998;2023-04-06T08:52:47;42.39;36.17;59.21;;
64996;Laerm;51545;51.568;6.998;2023-04-06T08:55:13;44.14;36.51;67.67;;
64996;Laerm;51545;51.568;6.998;2023-04-06T08:57:39;46.84;36.40;65.90;;
64996;Laerm;51545;51.568;6.998;2023-04-06T09:00:06;50.99;35.86;68.58;;
64996;Laerm;51545;51.568;6.998;2023-04-06T09:02:33;45.80;37.05;65.41;;
64996;Laerm;51545;51.568;6.998;2023-04-06T09:04:58;43.54;35.90;67.98;;
64996;Laerm;51545;51.568;6.998;2023-04-06T09:07:25;49.18;36.93;72.45;;
64996;Laerm;51545;51.568;6.998;2023-04-06T09:09:50;48.98;38.08;70.82;;
64996;Laerm;51545;51.568;6.998;2023-04-06T09:12:23;46.87;37.42;65.49;;
64996;Laerm;51545;51.568;6.998;2023-04-06T09:14:49;43.21;37.39;60.72;;
64996;Laerm;51545;51.568;6.998;2023-04-06T09:17:27;42.44;35.78;55.53;;
64996;Laerm;51545;51.568;6.998;2023-04-06T09:19:54;42.31;36.16;60.52;;
64996;Laerm;51545;51.568;6.998;2023-04-06T09:22:20;46.02;35.98;66.08;;
64996;Laerm;51545;51.568;6.998;2023-04-06T09:24:50;44.92;36.05;58.77;;
64996;Laerm;51545;51.568;6.998;2023-04-06T09:27:16;46.05;36.66;64.18;;
64996;Laerm;51545;51.568;6.998;2023-04-06T09:29:42;45.51;37.06;60.74;;
64996;Laerm;51545;51.568;6.998;2023-04-06T09:32:09;45.53;38.50;59.78;;
64996;Laerm;51545;51.568;6.998;2023-04-06T09:34:42;50.88;38.17;64.69;;
64996;Laerm;51545;51.568;6.998;2023-04-06T09:37:14;42.27;36.89;55.25;;
64996;Laerm;51545;51.568;6.998;2023-04-06T09:39:40;43.23;37.27;59.32;;
64996;Laerm;51545;51.568;6.998;2023-04-06T09:42:05;42.75;36.97;56.15;;
64996;Laerm;51545;51.568;6.998;2023-04-06T09:44:31;44.92;36.94;64.99;;
64996;Laerm;51545;51.568;6.998;2023-04-06T09:46:56;42.53;37.36;59.38;;
64996;Laerm;51545;51.568;6.998;2023-04-06T09:49:22;44.05;38.06;60.06;;
64996;Laerm;51545;51.568;6.998;2023-04-06T09:52:06;41.73;37.47;57.92;;
64996;Laerm;51545;51.568;6.998;2023-04-06T09:54:34;44.92;37.21;63.83;;
64996;Laerm;51545;51.568;6.998;2023-04-06T09:57:08;43.54;36.63;58.67;;
64996;Laerm;51545;51.568;6.998;2023-04-06T10:00:05;46.16;38.47;59.53;;
64996;Laerm;51545;51.568;6.998;2023-04-06T10:05:46;44.87;38.12;67.38;;
64996;Laerm;51545;51.568;6.998;2023-04-06T10:08:16;44.53;38.25;58.51;;
64996;Laerm;51545;51.568;6.998;2023-04-06T10:10:42;48.18;38.43;65.73;;
64996;Laerm;51545;51.568;6.998;2023-04-06T10:13:09;47.19;39.94;64.20;;
64996;Laerm;51545;51.568;6.998;2023-04-06T10:15:37;48.18;40.90;62.02;;
64996;Laerm;51545;51.568;6.998;2023-04-06T10:18:03;49.62;40.89;75.09;;
64996;Laerm;51545;51.568;6.998;2023-04-06T10:25:54;45.09;37.31;62.53;;
64996;Laerm;51545;51.568;6.998;2023-04-06T10:28:20;45.19;37.72;61.56;;
64996;Laerm;51545;51.568;6.998;2023-04-06T10:30:46;44.70;37.87;60.72;;
64996;Laerm;51545;51.568;6.998;2023-04-06T10:33:16;49.49;37.34;64.52;;
64996;Laerm;51545;51.568;6.998;2023-04-06T10:35:42;44.90;37.97;65.60;;
64996;Laerm;51545;51.568;6.998;2023-04-06T10:38:07;44.51;39.14;63.87;;
64996;Laerm;51545;51.568;6.998;2023-04-06T10:40:37;43.55;38.24;65.72;;
64996;Laerm;51545;51.568;6.998;2023-04-06T10:43:11;45.26;38.01;60.90;;
64996;Laerm;51545;51.568;6.998;2023-04-06T10:45:38;43.64;36.86;58.41;;
64996;Laerm;51545;51.568;6.998;2023-04-06T10:48:16;43.79;35.75;59.50;;
64996;Laerm;51545;51.568;6.998;2023-04-06T10:50:50;45.11;37.46;61.94;;
64996;Laerm;51545;51.568;6.998;2023-04-06T10:53:24;47.37;39.50;68.80;;
64996;Laerm;51545;51.568;6.998;2023-04-06T10:55:51;45.04;37.92;61.81;;
64996;Laerm;51545;51.568;6.998;2023-04-06T10:58:17;49.43;38.88;67.49;;
64996;Laerm;51545;51.568;6.998;2023-04-06T11:00:49;44.17;39.04;62.45;;
64996;Laerm;51545;51.568;6.998;2023-04-06T11:03:15;43.68;37.62;56.38;;
64996;Laerm;51545;51.568;6.998;2023-04-06T11:05:47;49.72;38.48;70.87;;
64996;Laerm;51545;51.568;6.998;2023-04-06T11:08:31;47.94;38.74;67.53;;
64996;Laerm;51545;51.568;6.998;2023-04-06T11:11:09;51.67;37.84;71.59;;
64996;Laerm;51545;51.568;6.998;2023-04-06T11:13:43;48.69;40.75;68.35;;
64996;Laerm;51545;51.568;6.998;2023-04-06T11:16:28;48.20;39.04;64.89;;
64996;Laerm;51545;51.568;6.998;2023-04-06T11:18:59;45.94;38.42;60.25;;
64996;Laerm;51545;51.568;6.998;2023-04-06T11:21:45;47.56;40.12;70.48;;
64996;Laerm;51545;51.568;6.998;2023-04-06T11:24:22;45.45;39.66;57.64;;
64996;Laerm;51545;51.568;6.998;2023-04-06T11:26:51;49.05;38.81;76.47;;
64996;Laerm;51545;51.568;6.998;2023-04-06T11:29:24;45.72;39.41;56.39;;
64996;Laerm;51545;51.568;6.998;2023-04-06T11:34:24;46.60;39.98;66.17;;
64996;Laerm;51545;51.568;6.998;2023-04-06T11:37:00;50.56;38.16;64.89;;
64996;Laerm;51545;51.568;6.998;2023-04-06T11:39:28;47.14;39.89;61.58;;
64996;Laerm;51545;51.568;6.998;2023-04-06T11:42:04;47.12;39.85;61.95;;
64996;Laerm;51545;51.568;6.998;2023-04-06T11:44:36;47.54;41.11;64.11;;
64996;Laerm;51545;51.568;6.998;2023-04-06T11:47:05;50.37;40.46;66.63;;
64996;Laerm;51545;51.568;6.998;2023-04-06T11:49:32;50.38;39.06;70.21;;
64996;Laerm;51545;51.568;6.998;2023-04-06T11:51:59;54.55;39.94;77.98;;
64996;Laerm;51545;51.568;6.998;2023-04-06T11:54:35;48.04;39.84;65.88;;
64996;Laerm;51545;51.568;6.998;2023-04-06T11:57:04;45.38;39.42;62.96;;
64996;Laerm;51545;51.568;6.998;2023-04-06T11:59:33;44.87;39.05;65.56;;
64996;Laerm;51545;51.568;6.998;2023-04-06T12:02:00;50.27;39.96;67.13;;
64996;Laerm;51545;51.568;6.998;2023-04-06T12:04:26;46.31;40.20;66.36;;
64996;Laerm;51545;51.568;6.998;2023-04-06T12:06:51;46.15;41.44;61.83;;
64996;Laerm;51545;51.568;6.998;2023-04-06T12:09:18;47.29;40.59;62.82;;
64996;Laerm;51545;51.568;6.998;2023-04-06T12:11:43;49.06;41.20;68.74;;
64996;Laerm;51545;51.568;6.998;2023-04-06T12:14:10;48.86;42.77;64.43;;
64996;Laerm;51545;51.568;6.998;2023-04-06T12:16:36;47.28;43.25;57.28;;
64996;Laerm;51545;51.568;6.998;2023-04-06T12:19:01;50.90;42.45;75.91;;
64996;Laerm;51545;51.568;6.998;2023-04-06T12:21:28;50.80;40.67;70.51;;
64996;Laerm;51545;51.568;6.998;2023-04-06T12:23:54;46.62;40.92;61.60;;
64996;Laerm;51545;51.568;6.998;2023-04-06T12:26:20;46.47;41.65;66.36;;
64996;Laerm;51545;51.568;6.998;2023-04-06T12:28:46;46.92;42.30;58.31;;
64996;Laerm;51545;51.568;6.998;2023-04-06T12:31:20;47.21;40.81;61.09;;
64996;Laerm;51545;51.568;6.998;2023-04-06T12:33:47;48.74;40.50;65.43;;
64996;Laerm;51545;51.568;6.998;2023-04-06T12:36:18;48.14;42.80;58.61;;
64996;Laerm;51545;51.568;6.998;2023-04-06T12:38:47;53.07;43.11;64.53;;
64996;Laerm;51545;51.568;6.998;2023-04-06T12:41:13;50.34;42.61;64.45;;
64996;Laerm;51545;51.568;6.998;2023-04-06T12:43:42;48.60;41.98;65.70;;
64996;Laerm;51545;51.568;6.998;2023-04-06T12:46:08;47.21;42.35;62.15;;
64996;Laerm;51545;51.568;6.998;2023-04-06T12:48:34;49.95;43.56;64.26;;
64996;Laerm;51545;51.568;6.998;2023-04-06T12:51:03;49.57;43.11;68.27;;
64996;Laerm;51545;51.568;6.998;2023-04-06T12:53:29;47.80;42.68;64.92;;
64996;Laerm;51545;51.568;6.998;2023-04-06T12:55:55;46.60;42.12;55.21;;
64996;Laerm;51545;51.568;6.998;2023-04-06T12:58:22;47.74;43.42;64.66;;
64996;Laerm;51545;51.568;6.998;2023-04-06T13:00:48;46.41;42.41;58.98;;
64996;Laerm;51545;51.568;6.998;2023-04-06T13:03:15;47.94;42.60;59.12;;
64996;Laerm;51545;51.568;6.998;2023-04-06T13:05:45;47.35;43.14;65.89;;
64996;Laerm;51545;51.568;6.998;2023-04-06T13:08:11;48.64;43.75;68.32;;
64996;Laerm;51545;51.568;6.998;2023-04-06T13:10:37;48.59;42.52;60.09;;
64996;Laerm;51545;51.568;6.998;2023-04-06T13:13:03;50.00;43.71;64.71;;
64996;Laerm;51545;51.568;6.998;2023-04-06T13:15:29;49.01;42.87;60.70;;
64996;Laerm;51545;51.568;6.998;2023-04-06T13:17:55;51.02;43.77;79.62;;
64996;Laerm;51545;51.568;6.998;2023-04-06T13:20:21;48.44;43.53;64.78;;
64996;Laerm;51545;51.568;6.998;2023-04-06T13:22:46;49.26;43.83;66.19;;
64996;Laerm;51545;51.568;6.998;2023-04-06T13:25:12;49.55;43.28;64.57;;
64996;Laerm;51545;51.568;6.998;2023-04-06T13:27:37;51.48;44.17;63.46;;
64996;Laerm;51545;51.568;6.998;2023-04-06T13:30:03;47.06;42.65;57.79;;
64996;Laerm;51545;51.568;6.998;2023-04-06T13:32:29;50.85;42.78;65.28;;
64996;Laerm;51545;51.568;6.998;2023-04-06T13:34:56;47.38;43.19;70.28;;
64996;Laerm;51545;51.568;6.998;2023-04-06T13:37:24;48.18;43.00;61.56;;
64996;Laerm;51545;51.568;6.998;2023-04-06T13:39:49;48.42;43.23;66.27;;
64996;Laerm;51545;51.568;6.998;2023-04-06T13:42:15;47.98;42.70;62.77;;
64996;Laerm;51545;51.568;6.998;2023-04-06T13:44:40;49.02;42.83;61.97;;
64996;Laerm;51545;51.568;6.998;2023-04-06T13:47:06;47.31;42.34;59.03;;
64996;Laerm;51545;51.568;6.998;2023-04-06T13:49:32;48.28;43.64;60.27;;
64996;Laerm;51545;51.568;6.998;2023-04-06T13:51:58;49.14;44.66;60.69;;